Time;durP1;ratioP1;P1;durP2;ratioP2;P2;SDS_P1;SDS_P2;PMS_P1;PMS_P2;Temp;Humidity;BMP_temperature;BMP_pressure;BME280_temperature;BME280_humidity;BME280_pressure;Samples;Min_cycle;Max_cycle;Signal;HPM_P1;HPM_P2
2023/09/20 00:00:33;;;;;;;0.52;0.52;;;;;;;;;;5063292;28;20029;-79
2023/09/20 00:02:59;;;;;;;0.30;0.30;;;;;;;;;;5062979;28;20104;-79
2023/09/20 00:05:26;;;;;;;0.20;0.20;;;;;;;;;;5067988;28;20033;-77
2023/09/20 00:07:56;;;;;;;0.57;0.52;;;;;;;;;;5085850;28;20112;-79
2023/09/20 00:10:23;;;;;;;0.40;0.40;;;;;;;;;;5084407;28;20060;-78
2023/09/20 00:12:49;;;;;;;0.20;0.20;;;;;;;;;;5083010;28;20032;-80
2023/09/20 00:15:15;;;;;;;0.50;0.50;;;;;;;;;;5082148;28;20120;-80
2023/09/20 00:17:41;;;;;;;0.40;0.40;;;;;;;;;;5069501;28;20036;-82
2023/09/20 00:20:13;;;;;;;0.38;0.38;;;;;;;;;;5061618;28;20052;-82
2023/09/20 00:22:41;;;;;;;0.40;0.40;;;;;;;;;;5062668;28;20009;-81
2023/09/20 00:25:16;;;;;;;0.30;0.30;;;;;;;;;;5062026;28;20017;-80
2023/09/20 00:27:46;;;;;;;0.30;0.30;;;;;;;;;;5071432;28;20039;-81
2023/09/20 00:30:14;;;;;;;0.28;0.28;;;;;;;;;;5082769;28;20027;-81
2023/09/20 00:32:43;;;;;;;0.30;0.30;;;;;;;;;;5083176;28;20017;-78
2023/09/20 00:35:10;;;;;;;0.40;0.40;;;;;;;;;;5082380;28;20032;-81
2023/09/20 00:37:37;;;;;;;0.40;0.40;;;;;;;;;;5081761;28;20407;-81
2023/09/20 00:40:04;;;;;;;0.63;0.55;;;;;;;;;;5081070;28;20028;-81
2023/09/20 00:42:31;;;;;;;0.50;0.50;;;;;;;;;;5080491;28;20032;-81
2023/09/20 00:45:01;;;;;;;0.30;0.30;;;;;;;;;;5080781;28;20025;-81
2023/09/20 00:47:27;;;;;;;0.47;0.40;;;;;;;;;;5074236;28;20024;-80
2023/09/20 00:49:53;;;;;;;0.63;0.40;;;;;;;;;;5081377;28;20035;-81
2023/09/20 00:52:19;;;;;;;0.43;0.43;;;;;;;;;;5082459;28;20079;-82
2023/09/20 00:54:45;;;;;;;0.32;0.32;;;;;;;;;;5080634;28;20032;-81
2023/09/20 00:57:12;;;;;;;0.20;0.20;;;;;;;;;;5081622;28;20028;-80
2023/09/20 00:59:39;;;;;;;0.98;0.30;;;;;;;;;;5065653;28;20033;-81
2023/09/20 01:02:06;;;;;;;0.40;0.40;;;;;;;;;;5061778;28;20021;-79
2023/09/20 01:04:34;;;;;;;1.02;0.63;;;;;;;;;;5061897;28;20028;-80
2023/09/20 01:07:00;;;;;;;0.40;0.40;;;;;;;;;;5062611;28;20443;-80
2023/09/20 01:09:26;;;;;;;0.25;0.25;;;;;;;;;;5063018;28;20033;-80
2023/09/20 01:11:53;;;;;;;0.38;0.38;;;;;;;;;;5077839;28;20028;-78
2023/09/20 01:14:20;;;;;;;0.40;0.40;;;;;;;;;;5080670;28;20016;-79
2023/09/20 01:16:46;;;;;;;0.55;0.52;;;;;;;;;;5081583;28;20020;-81
2023/09/20 01:19:12;;;;;;;0.32;0.30;;;;;;;;;;5077741;28;20043;-82
2023/09/20 01:21:42;;;;;;;0.73;0.60;;;;;;;;;;5085524;28;20044;-79
2023/09/20 01:24:10;;;;;;;0.40;0.40;;;;;;;;;;5086196;28;20487;-81
2023/09/20 01:26:39;;;;;;;0.60;0.60;;;;;;;;;;5086618;28;20103;-82
2023/09/20 01:29:05;;;;;;;0.38;0.38;;;;;;;;;;5081099;28;20047;-80
2023/09/20 01:31:33;;;;;;;0.40;0.40;;;;;;;;;;5065632;28;20047;-81
2023/09/20 01:33:59;;;;;;;0.30;0.30;;;;;;;;;;5067305;28;20476;-80
2023/09/20 01:36:25;;;;;;;0.40;0.40;;;;;;;;;;5079959;28;20033;-81
2023/09/20 01:38:51;;;;;;;0.40;0.40;;;;;;;;;;5070806;28;20028;-81
2023/09/20 01:41:19;;;;;;;0.45;0.45;;;;;;;;;;5066249;28;20025;-81
2023/09/20 01:43:45;;;;;;;0.60;0.60;;;;;;;;;;5066781;28;20025;-82
2023/09/20 01:46:12;;;;;;;0.75;0.75;;;;;;;;;;5072450;28;20032;-79
2023/09/20 01:48:40;;;;;;;0.50;0.50;;;;;;;;;;5085521;28;20025;-81
2023/09/20 01:51:06;;;;;;;0.65;0.65;;;;;;;;;;5085015;28;20475;-81
2023/09/20 01:53:32;;;;;;;0.47;0.45;;;;;;;;;;5085630;28;20021;-81
2023/09/20 01:56:00;;;;;;;0.50;0.50;;;;;;;;;;5091451;28;20074;-80
2023/09/20 01:58:26;;;;;;;0.85;0.50;;;;;;;;;;5085019;28;20044;-80
2023/09/20 02:00:52;;;;;;;0.50;0.50;;;;;;;;;;5065786;28;20032;-81
2023/09/20 02:03:18;;;;;;;0.30;0.30;;;;;;;;;;5072001;28;20372;-81
2023/09/20 02:05:47;;;;;;;0.28;0.28;;;;;;;;;;5080964;28;20059;-80
2023/09/20 02:08:13;;;;;;;0.65;0.65;;;;;;;;;;5065701;28;20029;-79
2023/09/20 02:10:40;;;;;;;0.30;0.30;;;;;;;;;;5084412;28;20024;-79
2023/09/20 02:13:07;;;;;;;0.32;0.32;;;;;;;;;;5084852;28;20031;-79
2023/09/20 02:15:40;;;;;;;0.60;0.60;;;;;;;;;;5085534;28;20028;-77
2023/09/20 02:18:09;;;;;;;0.60;0.60;;;;;;;;;;5098194;28;20013;-77
2023/09/20 02:20:36;;;;;;;0.47;0.47;;;;;;;;;;5073092;28;20032;-77
2023/09/20 02:23:03;;;;;;;0.50;0.50;;;;;;;;;;5068840;28;20029;-80
2023/09/20 02:25:29;;;;;;;0.50;0.50;;;;;;;;;;5065849;28;20020;-81
2023/09/20 02:28:02;;;;;;;0.38;0.38;;;;;;;;;;5072417;28;20096;-80
2023/09/20 02:30:28;;;;;;;0.40;0.40;;;;;;;;;;5083804;28;20025;-81
2023/09/20 02:32:57;;;;;;;0.30;0.30;;;;;;;;;;5076351;28;20044;-80
2023/09/20 02:35:27;;;;;;;0.50;0.50;;;;;;;;;;5082019;28;20058;-81
2023/09/20 02:37:54;;;;;;;0.63;0.63;;;;;;;;;;5083730;28;20117;-81
2023/09/20 02:40:23;;;;;;;0.38;0.30;;;;;;;;;;5065980;28;20033;-80
2023/09/20 02:42:53;;;;;;;0.50;0.50;;;;;;;;;;5076114;28;20047;-80
2023/09/20 02:45:23;;;;;;;0.52;0.50;;;;;;;;;;5083270;28;20090;-82
2023/09/20 02:47:50;;;;;;;0.50;0.50;;;;;;;;;;5079471;28;20017;-81
2023/09/20 02:50:18;;;;;;;0.40;0.40;;;;;;;;;;5083808;28;20051;-83
2023/09/20 02:52:47;;;;;;;0.68;0.68;;;;;;;;;;5081547;28;20024;-81
2023/09/20 02:55:14;;;;;;;0.30;0.30;;;;;;;;;;5065865;28;20035;-82
2023/09/20 02:57:41;;;;;;;0.50;0.40;;;;;;;;;;5066315;28;20029;-82
2023/09/20 03:00:14;;;;;;;0.47;0.47;;;;;;;;;;5070521;28;20033;-81
2023/09/20 03:02:44;;;;;;;0.32;0.32;;;;;;;;;;5062048;28;20029;-81
2023/09/20 03:05:11;;;;;;;0.50;0.50;;;;;;;;;;5071081;28;20088;-81
2023/09/20 03:07:39;;;;;;;0.40;0.40;;;;;;;;;;5082699;28;20103;-80
2023/09/20 03:10:05;;;;;;;0.30;0.30;;;;;;;;;;5070008;28;20025;-82
2023/09/20 03:12:33;;;;;;;0.30;0.30;;;;;;;;;;5064963;28;20029;-81
2023/09/20 03:15:04;;;;;;;0.50;0.50;;;;;;;;;;5067091;28;20033;-80
2023/09/20 03:17:31;;;;;;;0.40;0.40;;;;;;;;;;5082887;28;20021;-81
2023/09/20 03:19:58;;;;;;;0.28;0.28;;;;;;;;;;5064872;28;20025;-82
2023/09/20 03:22:24;;;;;;;0.40;0.30;;;;;;;;;;5062751;28;20020;-81
2023/09/20 03:24:51;;;;;;;0.40;0.30;;;;;;;;;;5059979;28;20028;-82
2023/09/20 03:27:17;;;;;;;0.20;0.20;;;;;;;;;;5061323;28;20040;-81
2023/09/20 03:29:46;;;;;;;0.22;0.20;;;;;;;;;;5062494;28;20331;-83
2023/09/20 03:32:15;;;;;;;0.30;0.30;;;;;;;;;;5076895;28;20028;-83
2023/09/20 03:34:41;;;;;;;0.30;0.30;;;;;;;;;;5079614;28;20020;-83
2023/09/20 03:37:10;;;;;;;0.28;0.28;;;;;;;;;;5081897;28;20024;-82
2023/09/20 03:39:40;;;;;;;0.30;0.30;;;;;;;;;;5078951;28;20450;-82
2023/09/20 03:42:11;;;;;;;0.40;0.40;;;;;;;;;;5060772;28;20025;-82
2023/09/20 03:44:39;;;;;;;0.30;0.30;;;;;;;;;;5062244;28;20025;-83
2023/09/20 03:47:05;;;;;;;0.17;0.17;;;;;;;;;;5070670;28;20016;-82
2023/09/20 03:49:32;;;;;;;0.20;0.20;;;;;;;;;;5071690;28;20021;-80
2023/09/20 03:52:01;;;;;;;0.20;0.20;;;;;;;;;;5062503;28;20025;-81
2023/09/20 03:54:28;;;;;;;0.20;0.20;;;;;;;;;;5061089;28;20017;-82
2023/09/20 03:56:55;;;;;;;0.25;0.25;;;;;;;;;;5060098;28;20105;-82
2023/09/20 03:59:21;;;;;;;0.20;0.20;;;;;;;;;;5061141;28;20017;-82
2023/09/20 04:01:47;;;;;;;0.10;0.10;;;;;;;;;;5074444;28;20032;-81
2023/09/20 04:04:16;;;;;;;0.22;0.22;;;;;;;;;;5080940;28;20021;-81
2023/09/20 04:06:43;;;;;;;0.30;0.30;;;;;;;;;;5080017;28;20032;-82
2023/09/20 04:09:12;;;;;;;0.20;0.20;;;;;;;;;;5081440;28;20025;-82
2023/09/20 04:11:39;;;;;;;0.30;0.30;;;;;;;;;;5081387;28;20111;-82
2023/09/20 04:14:09;;;;;;;0.30;0.30;;;;;;;;;;5086804;28;20005;-81
2023/09/20 04:16:40;;;;;;;0.25;0.25;;;;;;;;;;5092855;28;20032;-81
2023/09/20 04:19:07;;;;;;;0.20;0.20;;;;;;;;;;5069475;28;20071;-83
2023/09/20 04:21:33;;;;;;;0.30;0.30;;;;;;;;;;5079203;28;20479;-81
2023/09/20 04:23:59;;;;;;;0.25;0.25;;;;;;;;;;5062427;28;20027;-82
2023/09/20 04:26:26;;;;;;;0.30;0.30;;;;;;;;;;5061005;28;20021;-81
2023/09/20 04:28:52;;;;;;;0.30;0.30;;;;;;;;;;5059081;28;20039;-81
2023/09/20 04:31:18;;;;;;;0.30;0.30;;;;;;;;;;5059794;28;20023;-82
2023/09/20 04:33:45;;;;;;;0.30;0.30;;;;;;;;;;5057924;28;20048;-81
2023/09/20 04:36:12;;;;;;;0.30;0.30;;;;;;;;;;5059156;28;20120;-81
2023/09/20 04:38:38;;;;;;;0.30;0.30;;;;;;;;;;5059785;28;20082;-82
2023/09/20 04:41:05;;;;;;;0.25;0.25;;;;;;;;;;5059912;28;20053;-80
2023/09/20 04:43:31;;;;;;;0.30;0.30;;;;;;;;;;5077824;28;20048;-83
2023/09/20 04:46:01;;;;;;;0.20;0.20;;;;;;;;;;5080361;28;20047;-82
2023/09/20 04:48:28;;;;;;;0.22;0.22;;;;;;;;;;5067447;28;20035;-82
2023/09/20 04:50:55;;;;;;;0.30;0.30;;;;;;;;;;5069440;28;20484;-83
2023/09/20 04:53:23;;;;;;;0.10;0.10;;;;;;;;;;5064022;28;20032;-83
2023/09/20 04:55:49;;;;;;;0.30;0.30;;;;;;;;;;5080164;28;20024;-78
2023/09/20 04:58:17;;;;;;;0.30;0.30;;;;;;;;;;5083213;28;20027;-83
2023/09/20 05:00:43;;;;;;;0.40;0.40;;;;;;;;;;5083899;28;20028;-82
2023/09/20 05:03:11;;;;;;;0.22;0.22;;;;;;;;;;5078501;28;20134;-81
2023/09/20 05:05:37;;;;;;;0.40;0.40;;;;;;;;;;5084211;28;20479;-81
2023/09/20 05:08:08;;;;;;;0.30;0.30;;;;;;;;;;5083541;28;20029;-80
2023/09/20 05:10:34;;;;;;;0.22;0.22;;;;;;;;;;5064450;28;20021;-82
2023/09/20 05:13:01;;;;;;;1.50;0.30;;;;;;;;;;5063580;28;20082;-82
2023/09/20 05:15:27;;;;;;;0.20;0.20;;;;;;;;;;5062649;28;20423;-79
2023/09/20 05:17:53;;;;;;;0.35;0.35;;;;;;;;;;5079419;28;20024;-79
2023/09/20 05:20:20;;;;;;;0.35;0.35;;;;;;;;;;5078612;28;20025;-79
2023/09/20 05:22:46;;;;;;;0.40;0.40;;;;;;;;;;5066109;28;20051;-78
2023/09/20 05:25:12;;;;;;;0.30;0.30;;;;;;;;;;5077383;28;20048;-78
2023/09/20 05:27:38;;;;;;;0.20;0.20;;;;;;;;;;5084017;28;20029;-81
2023/09/20 05:30:05;;;;;;;0.30;0.30;;;;;;;;;;5063816;28;20021;-81
2023/09/20 05:32:31;;;;;;;0.20;0.20;;;;;;;;;;5067058;28;20076;-79
2023/09/20 05:34:57;;;;;;;0.47;0.40;;;;;;;;;;5083023;28;20138;-81
2023/09/20 05:37:23;;;;;;;0.30;0.30;;;;;;;;;;5083680;28;20028;-80
2023/09/20 05:39:50;;;;;;;0.38;0.38;;;;;;;;;;5064436;28;20432;-80
2023/09/20 05:42:16;;;;;;;0.50;0.50;;;;;;;;;;5064199;28;20027;-77
2023/09/20 05:44:43;;;;;;;0.30;0.30;;;;;;;;;;5063440;28;20032;-80
2023/09/20 05:47:09;;;;;;;0.28;0.28;;;;;;;;;;5075224;28;20017;-80
2023/09/20 05:49:35;;;;;;;0.50;0.50;;;;;;;;;;5068880;28;20023;-80
2023/09/20 05:52:06;;;;;;;0.47;0.40;;;;;;;;;;5071522;28;20357;-83
2023/09/20 05:54:32;;;;;;;0.30;0.30;;;;;;;;;;5077796;28;20395;-76
2023/09/20 05:57:02;;;;;;;0.52;0.50;;;;;;;;;;5086113;28;20029;-79
2023/09/20 05:59:29;;;;;;;0.40;0.40;;;;;;;;;;5067343;28;20081;-80
2023/09/20 06:01:55;;;;;;;0.55;0.55;;;;;;;;;;5061852;28;20051;-82
2023/09/20 06:04:21;;;;;;;0.30;0.30;;;;;;;;;;5067091;28;20025;-81
2023/09/20 06:06:47;;;;;;;0.35;0.35;;;;;;;;;;5082275;28;20368;-82
2023/09/20 06:09:14;;;;;;;0.30;0.30;;;;;;;;;;5082786;28;20031;-82
2023/09/20 06:11:40;;;;;;;0.30;0.30;;;;;;;;;;5095625;28;20196;-76
2023/09/20 06:14:06;;;;;;;0.30;0.30;;;;;;;;;;5076861;28;20021;-79
2023/09/20 06:16:32;;;;;;;0.20;0.20;;;;;;;;;;5080221;28;20077;-79
2023/09/20 06:18:58;;;;;;;0.30;0.30;;;;;;;;;;5062596;28;20021;-80
2023/09/20 06:21:24;;;;;;;0.40;0.40;;;;;;;;;;5073658;28;20448;-81
2023/09/20 06:23:50;;;;;;;0.40;0.40;;;;;;;;;;5081579;28;20027;-80
2023/09/20 06:26:18;;;;;;;0.30;0.30;;;;;;;;;;5080454;28;20040;-80
2023/09/20 06:28:44;;;;;;;0.20;0.20;;;;;;;;;;5082373;28;20017;-78
2023/09/20 06:31:15;;;;;;;0.20;0.20;;;;;;;;;;5075459;28;20025;-81
2023/09/20 06:33:41;;;;;;;0.38;0.38;;;;;;;;;;5080944;28;20138;-81
2023/09/20 06:36:08;;;;;;;0.40;0.30;;;;;;;;;;5082133;28;20028;-81
2023/09/20 06:38:37;;;;;;;0.30;0.30;;;;;;;;;;5081615;28;20031;-82
2023/09/20 06:41:04;;;;;;;0.20;0.20;;;;;;;;;;5080734;28;20216;-80
2023/09/20 06:43:30;;;;;;;0.50;0.50;;;;;;;;;;5078885;28;20032;-81
2023/09/20 06:45:57;;;;;;;0.45;0.30;;;;;;;;;;5081938;28;20083;-80
2023/09/20 06:48:24;;;;;;;0.55;0.50;;;;;;;;;;5075549;28;20017;-82
2023/09/20 06:50:50;;;;;;;0.40;0.40;;;;;;;;;;5078261;28;20028;-82
2023/09/20 06:53:17;;;;;;;0.82;0.60;;;;;;;;;;5080301;28;20383;-81
2023/09/20 06:55:49;;;;;;;0.45;0.43;;;;;;;;;;5081321;28;20035;-80
2023/09/20 06:58:15;;;;;;;0.47;0.38;;;;;;;;;;5078664;28;20101;-79
2023/09/20 07:00:41;;;;;;;0.52;0.50;;;;;;;;;;5062669;28;20036;-79
2023/09/20 07:03:08;;;;;;;0.50;0.50;;;;;;;;;;5059796;28;20025;-81
2023/09/20 07:05:34;;;;;;;0.70;0.70;;;;;;;;;;5058987;28;20032;-80
2023/09/20 07:08:01;;;;;;;0.40;0.40;;;;;;;;;;5058483;28;20107;-80
2023/09/20 07:10:31;;;;;;;0.38;0.38;;;;;;;;;;5058021;28;20029;-79
2023/09/20 07:12:57;;;;;;;0.52;0.30;;;;;;;;;;5060696;28;20479;-81
2023/09/20 07:15:28;;;;;;;0.40;0.40;;;;;;;;;;5061072;28;20021;-79
2023/09/20 07:18:01;;;;;;;0.40;0.40;;;;;;;;;;5069155;28;20017;-80
2023/09/20 07:20:28;;;;;;;0.30;0.30;;;;;;;;;;5060159;28;20043;-78
2023/09/20 07:22:54;;;;;;;0.40;0.40;;;;;;;;;;5080178;28;20048;-78
2023/09/20 07:25:21;;;;;;;0.50;0.50;;;;;;;;;;5080364;28;20070;-80
2023/09/20 07:27:48;;;;;;;0.60;0.40;;;;;;;;;;5080935;28;20047;-79
2023/09/20 07:30:17;;;;;;;0.60;0.52;;;;;;;;;;5080165;28;20025;-81
2023/09/20 07:32:44;;;;;;;0.50;0.50;;;;;;;;;;5063693;28;20472;-81
2023/09/20 07:35:26;;;;;;;0.75;0.40;;;;;;;;;;5060893;28;20021;-80
2023/09/20 07:37:58;;;;;;;0.40;0.40;;;;;;;;;;5062213;28;20033;-79
2023/09/20 07:40:24;;;;;;;;;;;;;;;;;;5061107;28;20061;-79
2023/09/20 07:42:50;;;;;;;0.60;0.60;;;;;;;;;;5074769;28;19969;-79
2023/09/20 07:45:16;;;;;;;0.40;0.40;;;;;;;;;;5079804;28;20035;-79
2023/09/20 07:47:43;;;;;;;0.45;0.45;;;;;;;;;;5069379;28;20035;-78
2023/09/20 07:50:11;;;;;;;0.60;0.60;;;;;;;;;;5059312;28;20017;-79
2023/09/20 07:52:38;;;;;;;0.30;0.30;;;;;;;;;;5059157;28;20032;-79
2023/09/20 07:55:05;;;;;;;0.60;0.60;;;;;;;;;;5071933;28;20028;-80
2023/09/20 07:57:31;;;;;;;0.63;0.63;;;;;;;;;;5080107;28;20033;-79
2023/09/20 07:59:59;;;;;;;1.95;0.60;;;;;;;;;;5081944;28;20028;-79
2023/09/20 08:02:25;;;;;;;0.57;0.57;;;;;;;;;;5074898;28;20021;-79
2023/09/20 08:04:51;;;;;;;1.15;0.60;;;;;;;;;;5062479;28;20064;-79
2023/09/20 08:07:17;;;;;;;3.25;1.02;;;;;;;;;;5073371;28;20021;-78
2023/09/20 08:09:44;;;;;;;1.35;0.90;;;;;;;;;;5065622;28;20392;-79
2023/09/20 08:12:11;;;;;;;0.77;0.77;;;;;;;;;;5059195;28;20085;-80
2023/09/20 08:14:38;;;;;;;1.25;0.65;;;;;;;;;;5056708;28;20047;-79
2023/09/20 08:19:49;;;;;;;1.45;1.00;;;;;;;;;;5069303;28;20110;-80
2023/09/20 08:22:17;;;;;;;1.17;0.90;;;;;;;;;;5078518;28;20052;-79
2023/09/20 09:00:31;;;;;;;1.15;0.90;;;;;;;;;;5068725;28;20060;-82
2023/09/20 09:03:03;;;;;;;0.65;0.65;;;;;;;;;;5067781;28;20104;-80
2023/09/20 09:05:29;;;;;;;1.05;0.82;;;;;;;;;;5068936;28;20025;-80
2023/09/20 09:07:59;;;;;;;0.73;0.73;;;;;;;;;;5068469;28;20033;-82
2023/09/20 09:10:26;;;;;;;0.70;0.70;;;;;;;;;;5084695;28;20088;-81
2023/09/20 09:12:52;;;;;;;0.60;0.60;;;;;;;;;;5071841;28;20022;-82
2023/09/20 09:15:18;;;;;;;0.57;0.57;;;;;;;;;;5073982;28;20032;-82
2023/09/20 09:17:46;;;;;;;0.65;0.65;;;;;;;;;;5075669;28;20039;-83
2023/09/20 09:20:13;;;;;;;0.68;0.68;;;;;;;;;;5072892;28;20029;-81
2023/09/20 09:22:41;;;;;;;0.70;0.70;;;;;;;;;;5069900;28;20059;-80
2023/09/20 09:25:11;;;;;;;0.52;0.52;;;;;;;;;;5068311;28;20024;-82
2023/09/20 09:27:37;;;;;;;0.55;0.55;;;;;;;;;;5069593;28;20073;-82
2023/09/20 09:30:05;;;;;;;0.73;0.73;;;;;;;;;;5069974;28;20028;-82
2023/09/20 09:32:37;;;;;;;0.63;0.63;;;;;;;;;;5070366;28;20047;-82
2023/09/20 09:35:05;;;;;;;0.70;0.70;;;;;;;;;;5068889;28;20029;-81
2023/09/20 09:37:32;;;;;;;0.70;0.70;;;;;;;;;;5068577;28;20040;-80
2023/09/20 09:40:02;;;;;;;0.60;0.60;;;;;;;;;;5075457;28;20020;-81
2023/09/20 09:42:29;;;;;;;0.70;0.70;;;;;;;;;;5089913;28;20025;-81
2023/09/20 09:44:55;;;;;;;2.42;0.82;;;;;;;;;;5090410;28;20465;-82
2023/09/20 09:47:22;;;;;;;1.02;1.02;;;;;;;;;;5083827;28;20025;-80
2023/09/20 09:49:51;;;;;;;1.17;0.80;;;;;;;;;;5087212;28;20039;-81
2023/09/20 09:52:18;;;;;;;0.57;0.57;;;;;;;;;;5070456;28;20028;-80
2023/09/20 09:54:46;;;;;;;0.60;0.60;;;;;;;;;;5068344;28;20021;-81
2023/09/20 09:57:12;;;;;;;0.70;0.70;;;;;;;;;;5070892;28;20036;-83
2023/09/20 09:59:39;;;;;;;0.82;0.82;;;;;;;;;;5069619;28;20037;-81
2023/09/20 10:02:17;;;;;;;0.70;0.60;;;;;;;;;;5086102;28;20029;-82
2023/09/20 10:04:44;;;;;;;0.50;0.50;;;;;;;;;;5092660;28;20024;-79
2023/09/20 10:07:10;;;;;;;0.60;0.60;;;;;;;;;;5092606;28;20054;-80
2023/09/20 10:09:40;;;;;;;2.55;0.80;;;;;;;;;;5089807;28;20064;-80
2023/09/20 10:12:08;;;;;;;0.75;0.75;;;;;;;;;;5075979;28;20025;-82
2023/09/20 10:14:36;;;;;;;0.68;0.68;;;;;;;;;;5070998;28;20032;-80
2023/09/20 10:17:06;;;;;;;0.70;0.70;;;;;;;;;;5081480;28;20024;-80
2023/09/20 10:19:33;;;;;;;0.60;0.60;;;;;;;;;;5090777;28;20044;-82
2023/09/20 10:22:21;;;;;;;0.70;0.70;;;;;;;;;;5076106;28;20518;-79
2023/09/20 10:24:54;;;;;;;0.80;0.80;;;;;;;;;;5081402;28;20028;-79
2023/09/20 10:27:22;;;;;;;0.80;0.80;;;;;;;;;;5088134;28;20035;-78
2023/09/20 10:30:10;;;;;;;0.85;0.70;;;;;;;;;;5094312;28;20036;-80
2023/09/20 10:32:54;;;;;;;0.88;0.70;;;;;;;;;;5093526;28;20084;-78
2023/09/20 10:35:29;;;;;;;0.88;0.82;;;;;;;;;;5093805;28;20025;-79
2023/09/20 10:38:08;;;;;;;0.70;0.70;;;;;;;;;;5094999;28;20023;-78
2023/09/20 10:40:55;;;;;;;1.10;0.90;;;;;;;;;;5088521;28;20288;-79
2023/09/20 10:43:25;;;;;;;1.15;1.15;;;;;;;;;;5085857;28;20024;-78
2023/09/20 10:45:51;;;;;;;0.90;0.90;;;;;;;;;;5069699;28;20305;-78
2023/09/20 10:48:18;;;;;;;0.77;0.77;;;;;;;;;;5062316;28;20053;-78
2023/09/20 10:50:50;;;;;;;0.60;0.60;;;;;;;;;;5065345;28;20028;-79
2023/09/20 10:53:19;;;;;;;0.93;0.70;;;;;;;;;;5071313;28;20029;-79
2023/09/20 10:55:45;;;;;;;0.70;0.70;;;;;;;;;;5063176;28;20029;-79
2023/09/20 10:58:14;;;;;;;0.55;0.55;;;;;;;;;;5063040;28;20036;-80
2023/09/20 11:00:40;;;;;;;0.60;0.60;;;;;;;;;;5065166;28;20028;-79
2023/09/20 11:03:10;;;;;;;2.10;0.85;;;;;;;;;;5071807;28;20032;-79
2023/09/20 11:05:36;;;;;;;0.70;0.70;;;;;;;;;;5084219;28;20028;-78
2023/09/20 11:08:12;;;;;;;0.70;0.70;;;;;;;;;;5088793;28;20688;-80
2023/09/20 11:10:43;;;;;;;0.80;0.80;;;;;;;;;;5089976;28;20063;-80
2023/09/20 11:13:12;;;;;;;0.73;0.73;;;;;;;;;;5079301;28;20036;-79
2023/09/20 11:15:41;;;;;;;0.70;0.70;;;;;;;;;;5068310;28;20036;-79
2023/09/20 11:18:15;;;;;;;0.85;0.85;;;;;;;;;;5064298;28;20045;-78
2023/09/20 11:20:42;;;;;;;0.90;0.90;;;;;;;;;;5063062;28;20025;-79
2023/09/20 11:23:09;;;;;;;0.82;0.82;;;;;;;;;;5065538;28;20050;-78
2023/09/20 11:25:36;;;;;;;0.63;0.63;;;;;;;;;;5062921;28;20439;-79
2023/09/20 11:28:03;;;;;;;6.10;1.27;;;;;;;;;;5063395;28;20025;-78
2023/09/20 11:30:29;;;;;;;1.05;0.95;;;;;;;;;;5062105;28;20044;-79
2023/09/20 11:32:58;;;;;;;0.70;0.70;;;;;;;;;;5065050;28;20472;-79
2023/09/20 11:35:34;;;;;;;1.25;1.08;;;;;;;;;;5061917;28;20037;-79
2023/09/20 11:38:03;;;;;;;1.17;0.90;;;;;;;;;;5067738;28;20053;-79
2023/09/20 11:40:41;;;;;;;0.93;0.88;;;;;;;;;;5083160;28;20020;-78
2023/09/20 11:43:12;;;;;;;0.85;0.85;;;;;;;;;;5083128;28;20046;-79
2023/09/20 11:45:44;;;;;;;0.80;0.80;;;;;;;;;;5063583;28;20032;-79
2023/09/20 11:48:15;;;;;;;2.22;1.00;;;;;;;;;;5071907;28;20017;-80
2023/09/20 11:50:44;;;;;;;0.77;0.77;;;;;;;;;;5065047;28;20059;-79
2023/09/20 11:53:14;;;;;;;0.90;0.90;;;;;;;;;;5071128;28;20031;-80
2023/09/20 11:55:43;;;;;;;0.80;0.80;;;;;;;;;;5081600;28;20061;-79
2023/09/20 11:58:10;;;;;;;0.82;0.82;;;;;;;;;;5084378;28;20021;-79
2023/09/20 12:00:36;;;;;;;0.90;0.90;;;;;;;;;;5081930;28;20032;-78
2023/09/20 12:03:03;;;;;;;0.75;0.75;;;;;;;;;;5085849;28;20028;-79
2023/09/20 12:05:29;;;;;;;0.85;0.85;;;;;;;;;;5095652;28;20024;-80
2023/09/20 12:07:56;;;;;;;0.80;0.80;;;;;;;;;;5080525;28;20487;-78
2023/09/20 12:10:23;;;;;;;0.80;0.80;;;;;;;;;;5079490;28;20020;-78
2023/09/20 12:12:51;;;;;;;1.05;0.90;;;;;;;;;;5071607;28;20024;-79
2023/09/20 12:15:18;;;;;;;1.45;1.25;;;;;;;;;;5071708;28;20020;-80
2023/09/20 12:17:45;;;;;;;0.73;0.73;;;;;;;;;;5061083;28;20033;-78
2023/09/20 12:20:12;;;;;;;1.50;1.10;;;;;;;;;;5058694;28;20097;-79
2023/09/20 12:22:38;;;;;;;0.90;0.70;;;;;;;;;;5062718;28;20072;-79
2023/09/20 12:25:06;;;;;;;1.00;1.00;;;;;;;;;;5062189;28;20056;-79
2023/09/20 12:27:33;;;;;;;0.77;0.77;;;;;;;;;;5063708;28;20093;-79
2023/09/20 12:30:00;;;;;;;0.73;0.73;;;;;;;;;;5066362;28;20019;-80
2023/09/20 12:32:26;;;;;;;2.58;0.80;;;;;;;;;;5064108;28;20040;-80
2023/09/20 12:34:55;;;;;;;1.48;1.20;;;;;;;;;;5063627;28;20029;-79
2023/09/20 12:37:21;;;;;;;0.73;0.73;;;;;;;;;;5080457;28;20077;-79
2023/09/20 12:39:47;;;;;;;0.90;0.90;;;;;;;;;;5082147;28;20035;-79
2023/09/20 12:42:13;;;;;;;1.30;0.90;;;;;;;;;;5074739;28;20035;-80
2023/09/20 12:44:39;;;;;;;0.70;0.70;;;;;;;;;;5079155;28;20511;-79
2023/09/20 12:47:07;;;;;;;0.70;0.70;;;;;;;;;;5063027;28;20025;-78
2023/09/20 12:49:36;;;;;;;0.57;0.57;;;;;;;;;;5054969;28;20025;-79
2023/09/20 12:52:03;;;;;;;0.68;0.68;;;;;;;;;;5058731;28;20052;-78
2023/09/20 12:54:30;;;;;;;0.65;0.65;;;;;;;;;;5057972;28;20503;-78
2023/09/20 12:56:57;;;;;;;0.90;0.90;;;;;;;;;;5065551;28;20667;-77
2023/09/20 12:59:27;;;;;;;0.75;0.75;;;;;;;;;;5064361;28;20073;-78
2023/09/20 13:01:59;;;;;;;0.80;0.80;;;;;;;;;;5059818;28;20027;-78
2023/09/20 13:04:25;;;;;;;1.35;0.98;;;;;;;;;;5060528;28;20017;-79
2023/09/20 13:06:51;;;;;;;2.20;0.93;;;;;;;;;;5061972;28;20056;-78
2023/09/20 13:09:18;;;;;;;1.13;1.02;;;;;;;;;;5075032;28;20032;-77
2023/09/20 13:11:46;;;;;;;1.50;0.98;;;;;;;;;;5075262;28;20023;-77
2023/09/20 13:14:12;;;;;;;1.23;1.13;;;;;;;;;;5079770;28;20028;-79
2023/09/20 13:16:41;;;;;;;1.42;1.13;;;;;;;;;;5075178;28;20032;-78
2023/09/20 13:19:09;;;;;;;0.82;0.82;;;;;;;;;;5062934;28;20079;-78
2023/09/20 13:21:35;;;;;;;1.02;0.95;;;;;;;;;;5061390;28;20094;-79
2023/09/20 13:24:01;;;;;;;0.90;0.90;;;;;;;;;;5061980;28;20104;-79
2023/09/20 13:26:27;;;;;;;2.65;0.80;;;;;;;;;;5061020;28;20021;-79
2023/09/20 13:28:53;;;;;;;1.10;1.10;;;;;;;;;;5075117;28;20069;-78
2023/09/20 13:31:20;;;;;;;1.35;1.25;;;;;;;;;;5075181;28;20039;-78
2023/09/20 13:33:46;;;;;;;0.57;0.57;;;;;;;;;;5085946;28;20021;-77
2023/09/20 13:36:14;;;;;;;0.75;0.75;;;;;;;;;;5085028;28;20025;-79
2023/09/20 13:38:40;;;;;;;0.85;0.85;;;;;;;;;;5070896;28;20051;-79
2023/09/20 13:41:06;;;;;;;0.98;0.80;;;;;;;;;;5063122;28;20033;-79
2023/09/20 13:43:32;;;;;;;0.82;0.82;;;;;;;;;;5072648;28;20039;-81
2023/09/20 13:45:58;;;;;;;1.00;0.90;;;;;;;;;;5080937;28;20028;-80
2023/09/20 13:48:24;;;;;;;1.00;1.00;;;;;;;;;;5080148;28;20016;-82
2023/09/20 13:50:50;;;;;;;0.80;0.80;;;;;;;;;;5076318;28;20021;-80
2023/09/20 13:53:16;;;;;;;0.90;0.90;;;;;;;;;;5073704;28;20032;-81
2023/09/20 13:55:43;;;;;;;0.90;0.90;;;;;;;;;;5069729;28;20029;-81
2023/09/20 13:58:09;;;;;;;0.73;0.73;;;;;;;;;;5072985;28;20013;-80
2023/09/20 14:00:37;;;;;;;0.80;0.80;;;;;;;;;;5076203;28;20021;-80
2023/09/20 14:03:03;;;;;;;0.82;0.82;;;;;;;;;;5066944;28;20021;-81
2023/09/20 14:05:29;;;;;;;0.75;0.75;;;;;;;;;;5076202;28;20377;-82
2023/09/20 14:07:56;;;;;;;1.00;1.00;;;;;;;;;;5071912;28;20155;-79
2023/09/20 14:10:22;;;;;;;1.00;0.90;;;;;;;;;;5063827;28;20021;-79
2023/09/20 14:12:49;;;;;;;2.88;1.20;;;;;;;;;;5074434;28;20096;-81
2023/09/20 14:15:15;;;;;;;1.60;1.15;;;;;;;;;;5069472;28;20096;-80
2023/09/20 14:17:45;;;;;;;1.63;1.40;;;;;;;;;;5075931;28;20021;-81
2023/09/20 14:20:18;;;;;;;0.95;0.90;;;;;;;;;;5078603;28;20028;-82
2023/09/20 14:22:44;;;;;;;1.15;1.05;;;;;;;;;;5087973;28;20024;-80
2023/09/20 14:25:13;;;;;;;1.20;1.00;;;;;;;;;;5087703;28;20033;-82
2023/09/20 14:27:40;;;;;;;0.90;0.90;;;;;;;;;;5087015;28;20084;-82
2023/09/20 14:30:10;;;;;;;1.63;1.05;;;;;;;;;;5086825;28;20025;-81
2023/09/20 14:32:38;;;;;;;1.55;1.45;;;;;;;;;;5089616;28;20038;-83
2023/09/20 14:35:04;;;;;;;0.82;0.80;;;;;;;;;;5089770;28;20088;-82
2023/09/20 14:37:30;;;;;;;0.85;0.85;;;;;;;;;;5090308;28;20612;-80
2023/09/20 14:39:56;;;;;;;0.90;0.70;;;;;;;;;;5088325;28;20067;-81
2023/09/20 14:42:26;;;;;;;1.08;1.08;;;;;;;;;;5089953;28;20029;-82
2023/09/20 14:44:53;;;;;;;0.82;0.82;;;;;;;;;;5084933;28;20036;-80
2023/09/20 14:47:22;;;;;;;0.77;0.77;;;;;;;;;;5075595;28;20406;-79
2023/09/20 14:49:48;;;;;;;1.00;1.00;;;;;;;;;;5071273;28;20016;-79
2023/09/20 14:52:16;;;;;;;0.80;0.80;;;;;;;;;;5065292;28;20055;-79
2023/09/20 14:54:42;;;;;;;1.40;0.93;;;;;;;;;;5064495;28;20025;-80
2023/09/20 14:57:08;;;;;;;2.17;0.85;;;;;;;;;;5063608;28;20239;-78
2023/09/20 14:59:34;;;;;;;1.52;0.80;;;;;;;;;;5062516;28;20028;-81
2023/09/20 15:02:00;;;;;;;1.08;0.98;;;;;;;;;;5081379;28;20031;-79
2023/09/20 15:04:28;;;;;;;0.98;0.68;;;;;;;;;;5085075;28;20013;-77
2023/09/20 15:06:56;;;;;;;1.00;1.00;;;;;;;;;;5082678;28;20024;-79
2023/09/20 15:09:22;;;;;;;1.05;0.90;;;;;;;;;;5082364;28;20055;-80
2023/09/20 15:11:48;;;;;;;0.70;0.70;;;;;;;;;;5083323;28;20020;-79
2023/09/20 15:14:14;;;;;;;2.67;1.10;;;;;;;;;;5082579;28;20024;-79
2023/09/20 15:16:41;;;;;;;1.20;1.10;;;;;;;;;;5074325;28;20033;-78
2023/09/20 15:19:08;;;;;;;1.13;0.82;;;;;;;;;;5061141;28;20051;-79
2023/09/20 15:21:34;;;;;;;0.75;0.75;;;;;;;;;;5063754;28;20388;-80
2023/09/20 15:24:00;;;;;;;1.30;1.13;;;;;;;;;;5063354;28;20024;-80